sensor_id;sensor_type;location;lat;lon;timestamp;P1;durP1;ratioP1;P2;durP2;ratioP2
45762;SDS011;37512;52.408;13.356;2024-02-26T00:01:32;19.13;;;9.43;;
45762;SDS011;37512;52.408;13.356;2024-02-26T00:05:35;12.70;;;7.15;;
45762;SDS011;37512;52.408;13.356;2024-02-26T00:09:37;13.18;;;8.50;;
45762;SDS011;37512;52.408;13.356;2024-02-26T00:13:38;14.48;;;7.93;;
45762;SDS011;37512;52.408;13.356;2024-02-26T00:17:40;12.40;;;8.30;;
45762;SDS011;37512;52.408;13.356;2024-02-26T00:21:42;14.23;;;8.65;;
45762;SDS011;37512;52.408;13.356;2024-02-26T00:25:44;14.13;;;9.13;;
45762;SDS011;37512;52.408;13.356;2024-02-26T00:29:45;14.77;;;9.95;;
45762;SDS011;37512;52.408;13.356;2024-02-26T00:33:47;17.88;;;9.80;;
45762;SDS011;37512;52.408;13.356;2024-02-26T00:37:48;19.35;;;10.45;;
45762;SDS011;37512;52.408;13.356;2024-02-26T00:41:50;18.63;;;9.90;;
45762;SDS011;37512;52.408;13.356;2024-02-26T00:45:53;15.45;;;10.02;;
45762;SDS011;37512;52.408;13.356;2024-02-26T00:49:54;18.88;;;10.70;;
45762;SDS011;37512;52.408;13.356;2024-02-26T00:53:56;14.60;;;9.52;;
45762;SDS011;37512;52.408;13.356;2024-02-26T00:57:58;15.80;;;10.10;;
45762;SDS011;37512;52.408;13.356;2024-02-26T01:02:00;17.50;;;10.48;;
45762;SDS011;37512;52.408;13.356;2024-02-26T01:06:03;13.10;;;9.88;;
45762;SDS011;37512;52.408;13.356;2024-02-26T01:10:06;13.88;;;9.07;;
45762;SDS011;37512;52.408;13.356;2024-02-26T01:14:08;18.42;;;11.00;;
45762;SDS011;37512;52.408;13.356;2024-02-26T01:18:11;17.77;;;10.32;;
45762;SDS011;37512;52.408;13.356;2024-02-26T01:22:14;18.55;;;11.05;;
45762;SDS011;37512;52.408;13.356;2024-02-26T01:26:15;17.50;;;11.40;;
45762;SDS011;37512;52.408;13.356;2024-02-26T01:30:17;15.80;;;10.60;;
45762;SDS011;37512;52.408;13.356;2024-02-26T01:34:18;21.77;;;11.25;;
45762;SDS011;37512;52.408;13.356;2024-02-26T01:38:21;18.23;;;12.25;;
45762;SDS011;37512;52.408;13.356;2024-02-26T01:42:22;15.95;;;10.77;;
45762;SDS011;37512;52.408;13.356;2024-02-26T01:46:24;19.45;;;11.57;;
45762;SDS011;37512;52.408;13.356;2024-02-26T01:50:26;18.40;;;11.77;;
45762;SDS011;37512;52.408;13.356;2024-02-26T01:54:29;19.85;;;12.25;;
45762;SDS011;37512;52.408;13.356;2024-02-26T01:58:31;19.58;;;10.95;;
45762;SDS011;37512;52.408;13.356;2024-02-26T02:02:35;18.77;;;11.02;;
45762;SDS011;37512;52.408;13.356;2024-02-26T02:06:37;17.30;;;10.85;;
45762;SDS011;37512;52.408;13.356;2024-02-26T02:10:41;16.85;;;11.18;;
45762;SDS011;37512;52.408;13.356;2024-02-26T02:14:43;18.20;;;11.65;;
45762;SDS011;37512;52.408;13.356;2024-02-26T02:18:45;17.73;;;11.35;;
45762;SDS011;37512;52.408;13.356;2024-02-26T02:22:47;17.73;;;11.43;;
45762;SDS011;37512;52.408;13.356;2024-02-26T02:26:49;19.58;;;10.95;;
45762;SDS011;37512;52.408;13.356;2024-02-26T02:30:50;15.73;;;11.65;;
45762;SDS011;37512;52.408;13.356;2024-02-26T02:34:52;17.67;;;11.52;;
45762;SDS011;37512;52.408;13.356;2024-02-26T02:38:54;20.98;;;12.00;;
45762;SDS011;37512;52.408;13.356;2024-02-26T02:42:56;19.13;;;11.13;;
45762;SDS011;37512;52.408;13.356;2024-02-26T02:46:58;17.50;;;10.20;;
45762;SDS011;37512;52.408;13.356;2024-02-26T02:50:59;15.60;;;10.07;;
45762;SDS011;37512;52.408;13.356;2024-02-26T02:55:01;15.68;;;10.43;;
45762;SDS011;37512;52.408;13.356;2024-02-26T02:59:03;12.98;;;9.40;;
45762;SDS011;37512;52.408;13.356;2024-02-26T03:03:04;16.85;;;11.10;;
45762;SDS011;37512;52.408;13.356;2024-02-26T03:07:06;15.40;;;11.38;;
45762;SDS011;37512;52.408;13.356;2024-02-26T03:11:12;16.17;;;11.05;;
45762;SDS011;37512;52.408;13.356;2024-02-26T03:15:14;17.90;;;10.38;;
45762;SDS011;37512;52.408;13.356;2024-02-26T03:19:16;18.70;;;11.20;;
45762;SDS011;37512;52.408;13.356;2024-02-26T03:23:18;14.85;;;9.00;;
45762;SDS011;37512;52.408;13.356;2024-02-26T03:27:20;14.48;;;9.65;;
45762;SDS011;37512;52.408;13.356;2024-02-26T03:31:22;16.80;;;9.98;;
45762;SDS011;37512;52.408;13.356;2024-02-26T03:35:23;15.85;;;10.30;;
45762;SDS011;37512;52.408;13.356;2024-02-26T03:39:25;16.08;;;10.02;;
45762;SDS011;37512;52.408;13.356;2024-02-26T03:43:27;16.52;;;9.90;;
45762;SDS011;37512;52.408;13.356;2024-02-26T03:47:28;15.00;;;10.32;;
45762;SDS011;37512;52.408;13.356;2024-02-26T03:51:30;15.25;;;9.60;;
45762;SDS011;37512;52.408;13.356;2024-02-26T03:55:33;14.57;;;9.52;;
45762;SDS011;37512;52.408;13.356;2024-02-26T03:59:34;17.73;;;10.65;;
45762;SDS011;37512;52.408;13.356;2024-02-26T04:03:36;14.77;;;10.48;;
45762;SDS011;37512;52.408;13.356;2024-02-26T04:07:38;15.57;;;9.95;;
45762;SDS011;37512;52.408;13.356;2024-02-26T04:11:40;16.45;;;9.88;;
45762;SDS011;37512;52.408;13.356;2024-02-26T04:15:42;17.13;;;10.55;;
45762;SDS011;37512;52.408;13.356;2024-02-26T04:19:43;17.15;;;10.85;;
45762;SDS011;37512;52.408;13.356;2024-02-26T04:23:45;15.45;;;10.38;;
45762;SDS011;37512;52.408;13.356;2024-02-26T04:27:47;17.38;;;10.57;;
45762;SDS011;37512;52.408;13.356;2024-02-26T04:31:48;19.77;;;11.50;;
45762;SDS011;37512;52.408;13.356;2024-02-26T04:35:50;15.10;;;10.75;;
45762;SDS011;37512;52.408;13.356;2024-02-26T04:39:52;14.60;;;11.77;;
45762;SDS011;37512;52.408;13.356;2024-02-26T04:43:54;16.95;;;11.02;;
45762;SDS011;37512;52.408;13.356;2024-02-26T04:47:55;19.40;;;12.20;;
45762;SDS011;37512;52.408;13.356;2024-02-26T04:51:57;16.90;;;10.90;;
45762;SDS011;37512;52.408;13.356;2024-02-26T04:55:59;15.57;;;10.50;;
45762;SDS011;37512;52.408;13.356;2024-02-26T05:00:01;17.00;;;10.48;;
45762;SDS011;37512;52.408;13.356;2024-02-26T05:04:03;18.20;;;10.20;;
45762;SDS011;37512;52.408;13.356;2024-02-26T05:08:05;12.35;;;8.98;;
45762;SDS011;37512;52.408;13.356;2024-02-26T05:12:07;14.68;;;10.35;;
45762;SDS011;37512;52.408;13.356;2024-02-26T05:16:09;18.02;;;10.50;;
45762;SDS011;37512;52.408;13.356;2024-02-26T05:20:10;14.63;;;10.57;;
45762;SDS011;37512;52.408;13.356;2024-02-26T05:24:12;15.20;;;10.55;;
45762;SDS011;37512;52.408;13.356;2024-02-26T05:28:14;18.88;;;10.65;;
45762;SDS011;37512;52.408;13.356;2024-02-26T05:32:18;19.05;;;11.38;;
45762;SDS011;37512;52.408;13.356;2024-02-26T05:36:22;16.33;;;11.02;;
45762;SDS011;37512;52.408;13.356;2024-02-26T05:40:25;22.10;;;11.95;;
45762;SDS011;37512;52.408;13.356;2024-02-26T05:44:27;18.30;;;12.32;;
45762;SDS011;37512;52.408;13.356;2024-02-26T05:48:29;21.15;;;12.90;;
45762;SDS011;37512;52.408;13.356;2024-02-26T05:52:31;17.98;;;12.07;;
45762;SDS011;37512;52.408;13.356;2024-02-26T05:56:32;23.77;;;13.45;;
45762;SDS011;37512;52.408;13.356;2024-02-26T06:00:34;25.35;;;13.88;;
45762;SDS011;37512;52.408;13.356;2024-02-26T06:04:36;21.02;;;11.88;;
45762;SDS011;37512;52.408;13.356;2024-02-26T06:08:38;19.23;;;12.70;;
45762;SDS011;37512;52.408;13.356;2024-02-26T06:12:39;25.33;;;13.07;;
45762;SDS011;37512;52.408;13.356;2024-02-26T06:16:41;22.13;;;14.15;;
45762;SDS011;37512;52.408;13.356;2024-02-26T06:20:42;20.98;;;14.35;;
45762;SDS011;37512;52.408;13.356;2024-02-26T06:24:44;21.83;;;14.75;;
45762;SDS011;37512;52.408;13.356;2024-02-26T06:28:46;29.67;;;15.48;;
45762;SDS011;37512;52.408;13.356;2024-02-26T06:32:47;23.48;;;14.82;;
45762;SDS011;37512;52.408;13.356;2024-02-26T06:36:49;21.98;;;14.75;;
45762;SDS011;37512;52.408;13.356;2024-02-26T06:40:51;26.58;;;15.48;;
45762;SDS011;37512;52.408;13.356;2024-02-26T06:44:53;26.30;;;14.48;;
45762;SDS011;37512;52.408;13.356;2024-02-26T06:48:54;26.80;;;15.65;;
45762;SDS011;37512;52.408;13.356;2024-02-26T06:52:56;26.75;;;15.82;;
45762;SDS011;37512;52.408;13.356;2024-02-26T06:56:58;26.65;;;15.65;;
45762;SDS011;37512;52.408;13.356;2024-02-26T07:00:59;24.58;;;16.15;;
45762;SDS011;37512;52.408;13.356;2024-02-26T07:05:01;25.60;;;16.17;;
45762;SDS011;37512;52.408;13.356;2024-02-26T07:09:03;26.77;;;16.40;;
45762;SDS011;37512;52.408;13.356;2024-02-26T07:13:04;25.02;;;15.68;;
45762;SDS011;37512;52.408;13.356;2024-02-26T07:17:06;28.13;;;15.73;;
45762;SDS011;37512;52.408;13.356;2024-02-26T07:21:08;26.95;;;15.77;;
45762;SDS011;37512;52.408;13.356;2024-02-26T07:25:10;26.38;;;16.17;;
45762;SDS011;37512;52.408;13.356;2024-02-26T07:29:14;29.60;;;15.77;;
45762;SDS011;37512;52.408;13.356;2024-02-26T07:33:15;25.75;;;15.65;;
45762;SDS011;37512;52.408;13.356;2024-02-26T07:37:17;38.55;;;15.98;;
45762;SDS011;37512;52.408;13.356;2024-02-26T07:41:19;27.58;;;16.70;;
45762;SDS011;37512;52.408;13.356;2024-02-26T07:45:21;21.20;;;14.50;;
45762;SDS011;37512;52.408;13.356;2024-02-26T07:49:23;23.98;;;14.38;;
45762;SDS011;37512;52.408;13.356;2024-02-26T07:53:25;23.33;;;15.05;;
45762;SDS011;37512;52.408;13.356;2024-02-26T07:57:26;23.52;;;16.33;;
45762;SDS011;37512;52.408;13.356;2024-02-26T08:01:28;22.35;;;14.52;;
45762;SDS011;37512;52.408;13.356;2024-02-26T08:05:30;26.23;;;14.73;;
45762;SDS011;37512;52.408;13.356;2024-02-26T08:09:32;22.85;;;15.02;;
45762;SDS011;37512;52.408;13.356;2024-02-26T08:13:34;25.38;;;15.05;;
45762;SDS011;37512;52.408;13.356;2024-02-26T08:17:37;28.38;;;15.82;;
45762;SDS011;37512;52.408;13.356;2024-02-26T08:21:38;29.77;;;16.10;;
45762;SDS011;37512;52.408;13.356;2024-02-26T08:25:40;20.42;;;13.90;;
45762;SDS011;37512;52.408;13.356;2024-02-26T08:29:41;21.45;;;14.52;;
45762;SDS011;37512;52.408;13.356;2024-02-26T08:33:43;21.55;;;14.82;;
45762;SDS011;37512;52.408;13.356;2024-02-26T08:37:45;22.17;;;14.43;;
45762;SDS011;37512;52.408;13.356;2024-02-26T08:41:48;24.02;;;15.10;;
45762;SDS011;37512;52.408;13.356;2024-02-26T08:45:49;24.23;;;14.85;;
45762;SDS011;37512;52.408;13.356;2024-02-26T08:49:51;23.35;;;13.43;;
45762;SDS011;37512;52.408;13.356;2024-02-26T08:53:53;25.58;;;13.50;;
45762;SDS011;37512;52.408;13.356;2024-02-26T08:57:55;25.48;;;15.00;;
45762;SDS011;37512;52.408;13.356;2024-02-26T09:01:57;25.02;;;13.98;;
45762;SDS011;37512;52.408;13.356;2024-02-26T09:05:58;17.13;;;12.80;;
45762;SDS011;37512;52.408;13.356;2024-02-26T09:10:00;16.88;;;11.95;;
45762;SDS011;37512;52.408;13.356;2024-02-26T09:14:01;22.15;;;13.25;;
45762;SDS011;37512;52.408;13.356;2024-02-26T09:18:05;22.75;;;13.35;;
45762;SDS011;37512;52.408;13.356;2024-02-26T09:22:07;21.38;;;12.77;;
45762;SDS011;37512;52.408;13.356;2024-02-26T09:26:08;23.92;;;15.35;;
45762;SDS011;37512;52.408;13.356;2024-02-26T09:30:10;21.35;;;13.45;;
45762;SDS011;37512;52.408;13.356;2024-02-26T09:34:13;17.95;;;13.02;;
45762;SDS011;37512;52.408;13.356;2024-02-26T09:38:15;20.73;;;12.07;;
45762;SDS011;37512;52.408;13.356;2024-02-26T09:42:18;21.92;;;11.65;;
45762;SDS011;37512;52.408;13.356;2024-02-26T09:46:21;23.90;;;13.60;;
45762;SDS011;37512;52.408;13.356;2024-02-26T09:50:23;27.10;;;16.20;;
45762;SDS011;37512;52.408;13.356;2024-02-26T09:54:25;17.15;;;11.38;;
45762;SDS011;37512;52.408;13.356;2024-02-26T09:58:29;19.95;;;11.10;;
45762;SDS011;37512;52.408;13.356;2024-02-26T10:02:32;18.77;;;10.38;;
45762;SDS011;37512;52.408;13.356;2024-02-26T10:06:34;23.92;;;11.05;;
45762;SDS011;37512;52.408;13.356;2024-02-26T10:10:38;41.42;;;12.38;;
45762;SDS011;37512;52.408;13.356;2024-02-26T10:14:40;16.50;;;10.13;;
45762;SDS011;37512;52.408;13.356;2024-02-26T10:18:48;22.35;;;10.88;;
45762;SDS011;37512;52.408;13.356;2024-02-26T10:23:02;27.70;;;10.57;;
45762;SDS011;37512;52.408;13.356;2024-02-26T10:27:04;15.15;;;9.63;;
45762;SDS011;37512;52.408;13.356;2024-02-26T10:31:06;14.95;;;9.48;;
45762;SDS011;37512;52.408;13.356;2024-02-26T10:35:08;13.88;;;9.48;;
45762;SDS011;37512;52.408;13.356;2024-02-26T10:39:13;14.38;;;8.70;;
45762;SDS011;37512;52.408;13.356;2024-02-26T10:43:15;15.45;;;9.23;;
45762;SDS011;37512;52.408;13.356;2024-02-26T10:47:17;19.30;;;13.77;;
45762;SDS011;37512;52.408;13.356;2024-02-26T10:51:20;13.77;;;8.40;;
45762;SDS011;37512;52.408;13.356;2024-02-26T10:55:27;11.43;;;7.30;;
45762;SDS011;37512;52.408;13.356;2024-02-26T10:59:31;16.23;;;8.20;;
45762;SDS011;37512;52.408;13.356;2024-02-26T11:03:35;10.32;;;6.82;;
45762;SDS011;37512;52.408;13.356;2024-02-26T11:07:38;10.65;;;6.97;;
45762;SDS011;37512;52.408;13.356;2024-02-26T11:11:42;9.00;;;6.47;;
45762;SDS011;37512;52.408;13.356;2024-02-26T11:15:46;13.27;;;6.82;;
45762;SDS011;37512;52.408;13.356;2024-02-26T11:19:51;10.90;;;6.88;;
45762;SDS011;37512;52.408;13.356;2024-02-26T11:23:55;10.82;;;6.22;;
45762;SDS011;37512;52.408;13.356;2024-02-26T11:27:58;10.35;;;6.22;;
45762;SDS011;37512;52.408;13.356;2024-02-26T11:32:04;9.35;;;7.20;;
45762;SDS011;37512;52.408;13.356;2024-02-26T11:36:10;9.13;;;6.03;;
45762;SDS011;37512;52.408;13.356;2024-02-26T11:40:13;8.23;;;6.15;;
45762;SDS011;37512;52.408;13.356;2024-02-26T11:44:28;6.85;;;5.38;;
45762;SDS011;37512;52.408;13.356;2024-02-26T11:48:31;12.05;;;6.15;;
45762;SDS011;37512;52.408;13.356;2024-02-26T11:52:34;7.60;;;5.38;;
45762;SDS011;37512;52.408;13.356;2024-02-26T11:56:40;8.40;;;5.57;;
45762;SDS011;37512;52.408;13.356;2024-02-26T12:00:42;8.48;;;5.55;;
45762;SDS011;37512;52.408;13.356;2024-02-26T12:04:44;12.95;;;9.15;;
45762;SDS011;37512;52.408;13.356;2024-02-26T12:08:46;7.65;;;5.25;;
45762;SDS011;37512;52.408;13.356;2024-02-26T12:12:47;9.32;;;5.25;;
45762;SDS011;37512;52.408;13.356;2024-02-26T12:16:50;7.63;;;5.53;;
45762;SDS011;37512;52.408;13.356;2024-02-26T12:21:00;8.50;;;5.50;;
45762;SDS011;37512;52.408;13.356;2024-02-26T12:25:02;8.55;;;4.68;;
45762;SDS011;37512;52.408;13.356;2024-02-26T12:29:05;8.15;;;5.30;;
45762;SDS011;37512;52.408;13.356;2024-02-26T12:33:07;9.98;;;5.85;;
45762;SDS011;37512;52.408;13.356;2024-02-26T12:37:11;9.68;;;5.57;;
45762;SDS011;37512;52.408;13.356;2024-02-26T12:41:13;7.60;;;5.32;;
45762;SDS011;37512;52.408;13.356;2024-02-26T12:45:16;9.40;;;6.28;;
45762;SDS011;37512;52.408;13.356;2024-02-26T12:49:18;8.90;;;5.70;;
45762;SDS011;37512;52.408;13.356;2024-02-26T12:53:20;9.85;;;5.72;;
45762;SDS011;37512;52.408;13.356;2024-02-26T12:57:21;7.68;;;5.32;;
45762;SDS011;37512;52.408;13.356;2024-02-26T13:01:23;5.20;;;3.40;;
45762;SDS011;37512;52.408;13.356;2024-02-26T13:05:26;5.13;;;3.15;;
45762;SDS011;37512;52.408;13.356;2024-02-26T13:09:28;5.30;;;3.35;;
45762;SDS011;37512;52.408;13.356;2024-02-26T13:13:34;5.20;;;2.90;;
45762;SDS011;37512;52.408;13.356;2024-02-26T13:17:36;4.55;;;2.63;;
45762;SDS011;37512;52.408;13.356;2024-02-26T13:21:38;7.13;;;2.85;;
45762;SDS011;37512;52.408;13.356;2024-02-26T13:25:40;9.85;;;3.35;;
45762;SDS011;37512;52.408;13.356;2024-02-26T13:29:46;4.38;;;3.20;;
45762;SDS011;37512;52.408;13.356;2024-02-26T13:33:48;6.22;;;3.17;;
45762;SDS011;37512;52.408;13.356;2024-02-26T13:37:50;7.82;;;3.08;;
45762;SDS011;37512;52.408;13.356;2024-02-26T13:41:52;4.72;;;2.97;;
45762;SDS011;37512;52.408;13.356;2024-02-26T13:45:55;7.43;;;3.55;;
45762;SDS011;37512;52.408;13.356;2024-02-26T13:49:58;6.72;;;3.17;;
45762;SDS011;37512;52.408;13.356;2024-02-26T13:54:00;11.25;;;3.83;;
45762;SDS011;37512;52.408;13.356;2024-02-26T13:58:01;6.80;;;3.85;;
45762;SDS011;37512;52.408;13.356;2024-02-26T14:02:04;5.43;;;3.47;;
45762;SDS011;37512;52.408;13.356;2024-02-26T14:06:06;6.25;;;3.58;;
45762;SDS011;37512;52.408;13.356;2024-02-26T14:10:11;11.23;;;4.15;;
45762;SDS011;37512;52.408;13.356;2024-02-26T14:14:14;7.72;;;4.47;;
45762;SDS011;37512;52.408;13.356;2024-02-26T14:18:16;7.43;;;4.22;;
45762;SDS011;37512;52.408;13.356;2024-02-26T14:22:18;6.88;;;4.30;;
45762;SDS011;37512;52.408;13.356;2024-02-26T14:26:20;7.07;;;3.92;;
45762;SDS011;37512;52.408;13.356;2024-02-26T14:30:21;33.00;;;6.90;;
45762;SDS011;37512;52.408;13.356;2024-02-26T14:34:23;12.98;;;5.10;;
45762;SDS011;37512;52.408;13.356;2024-02-26T14:38:25;12.00;;;4.65;;
45762;SDS011;37512;52.408;13.356;2024-02-26T14:42:26;8.75;;;4.78;;
45762;SDS011;37512;52.408;13.356;2024-02-26T14:46:28;7.35;;;4.72;;
45762;SDS011;37512;52.408;13.356;2024-02-26T14:50:30;8.13;;;4.78;;
45762;SDS011;37512;52.408;13.356;2024-02-26T14:54:32;9.00;;;4.93;;
45762;SDS011;37512;52.408;13.356;2024-02-26T14:58:38;7.88;;;4.85;;
45762;SDS011;37512;52.408;13.356;2024-02-26T15:02:40;8.27;;;4.88;;
45762;SDS011;37512;52.408;13.356;2024-02-26T15:06:42;8.85;;;5.60;;
45762;SDS011;37512;52.408;13.356;2024-02-26T15:10:44;11.43;;;6.63;;
45762;SDS011;37512;52.408;13.356;2024-02-26T15:14:50;11.10;;;6.35;;
45762;SDS011;37512;52.408;13.356;2024-02-26T15:18:51;9.23;;;5.80;;
45762;SDS011;37512;52.408;13.356;2024-02-26T15:22:53;12.55;;;6.13;;
45762;SDS011;37512;52.408;13.356;2024-02-26T15:26:55;9.93;;;6.50;;
45762;SDS011;37512;52.408;13.356;2024-02-26T15:30:56;12.13;;;6.97;;
45762;SDS011;37512;52.408;13.356;2024-02-26T15:34:58;14.77;;;7.13;;
45762;SDS011;37512;52.408;13.356;2024-02-26T15:39:00;15.05;;;6.88;;
45762;SDS011;37512;52.408;13.356;2024-02-26T15:43:02;11.52;;;6.93;;
45762;SDS011;37512;52.408;13.356;2024-02-26T15:47:04;11.90;;;7.20;;
45762;SDS011;37512;52.408;13.356;2024-02-26T15:51:07;13.95;;;7.50;;
45762;SDS011;37512;52.408;13.356;2024-02-26T15:55:11;11.13;;;6.90;;
45762;SDS011;37512;52.408;13.356;2024-02-26T15:59:16;11.30;;;7.22;;
45762;SDS011;37512;52.408;13.356;2024-02-26T16:03:18;14.90;;;8.32;;
45762;SDS011;37512;52.408;13.356;2024-02-26T16:07:23;13.70;;;8.38;;
45762;SDS011;37512;52.408;13.356;2024-02-26T16:11:29;12.90;;;7.63;;
45762;SDS011;37512;52.408;13.356;2024-02-26T16:15:31;13.30;;;8.27;;
45762;SDS011;37512;52.408;13.356;2024-02-26T16:19:36;15.10;;;8.68;;
45762;SDS011;37512;52.408;13.356;2024-02-26T16:23:37;14.25;;;8.77;;
45762;SDS011;37512;52.408;13.356;2024-02-26T16:27:41;14.25;;;9.05;;
45762;SDS011;37512;52.408;13.356;2024-02-26T16:31:43;16.80;;;9.40;;
45762;SDS011;37512;52.408;13.356;2024-02-26T16:35:44;21.20;;;10.65;;
45762;SDS011;37512;52.408;13.356;2024-02-26T16:39:46;14.73;;;9.32;;
45762;SDS011;37512;52.408;13.356;2024-02-26T16:43:48;16.80;;;11.48;;
45762;SDS011;37512;52.408;13.356;2024-02-26T16:47:50;20.60;;;11.10;;
45762;SDS011;37512;52.408;13.356;2024-02-26T16:51:52;15.80;;;10.75;;
45762;SDS011;37512;52.408;13.356;2024-02-26T16:55:54;21.23;;;12.10;;
45762;SDS011;37512;52.408;13.356;2024-02-26T16:59:56;17.23;;;11.60;;
45762;SDS011;37512;52.408;13.356;2024-02-26T17:03:58;18.02;;;11.57;;
45762;SDS011;37512;52.408;13.356;2024-02-26T17:07:59;19.25;;;11.52;;
45762;SDS011;37512;52.408;13.356;2024-02-26T17:12:01;20.80;;;11.90;;
45762;SDS011;37512;52.408;13.356;2024-02-26T17:16:03;20.15;;;12.52;;
45762;SDS011;37512;52.408;13.356;2024-02-26T17:20:05;18.63;;;11.80;;
45762;SDS011;37512;52.408;13.356;2024-02-26T17:24:07;17.90;;;11.48;;
45762;SDS011;37512;52.408;13.356;2024-02-26T17:28:09;16.00;;;10.63;;
45762;SDS011;37512;52.408;13.356;2024-02-26T17:32:13;20.55;;;11.90;;
45762;SDS011;37512;52.408;13.356;2024-02-26T17:36:16;19.45;;;12.27;;
45762;SDS011;37512;52.408;13.356;2024-02-26T17:40:18;17.55;;;11.57;;
45762;SDS011;37512;52.408;13.356;2024-02-26T17:44:20;18.67;;;12.00;;
45762;SDS011;37512;52.408;13.356;2024-02-26T17:48:24;19.05;;;10.65;;
45762;SDS011;37512;52.408;13.356;2024-02-26T17:52:30;19.27;;;10.00;;
45762;SDS011;37512;52.408;13.356;2024-02-26T17:56:37;18.02;;;10.48;;
45762;SDS011;37512;52.408;13.356;2024-02-26T18:00:41;22.63;;;13.13;;
45762;SDS011;37512;52.408;13.356;2024-02-26T18:04:42;24.40;;;12.95;;
45762;SDS011;37512;52.408;13.356;2024-02-26T18:08:45;21.50;;;13.65;;
45762;SDS011;37512;52.408;13.356;2024-02-26T18:12:46;22.70;;;13.23;;
45762;SDS011;37512;52.408;13.356;2024-02-26T18:16:48;27.52;;;14.00;;
45762;SDS011;37512;52.408;13.356;2024-02-26T18:20:50;31.42;;;15.35;;
45762;SDS011;37512;52.408;13.356;2024-02-26T18:24:51;28.80;;;14.45;;
45762;SDS011;37512;52.408;13.356;2024-02-26T18:28:53;24.60;;;13.35;;
45762;SDS011;37512;52.408;13.356;2024-02-26T18:32:54;27.08;;;13.98;;
45762;SDS011;37512;52.408;13.356;2024-02-26T18:36:56;23.42;;;13.63;;
45762;SDS011;37512;52.408;13.356;2024-02-26T18:40:58;26.25;;;12.30;;
45762;SDS011;37512;52.408;13.356;2024-02-26T18:44:59;22.40;;;13.13;;
45762;SDS011;37512;52.408;13.356;2024-02-26T18:49:02;23.95;;;12.38;;
45762;SDS011;37512;52.408;13.356;2024-02-26T18:53:04;19.55;;;12.15;;
45762;SDS011;37512;52.408;13.356;2024-02-26T18:57:06;18.33;;;11.50;;
45762;SDS011;37512;52.408;13.356;2024-02-26T19:01:08;18.67;;;10.85;;
45762;SDS011;37512;52.408;13.356;2024-02-26T19:05:09;21.42;;;10.57;;
45762;SDS011;37512;52.408;13.356;2024-02-26T19:09:12;18.63;;;10.98;;
45762;SDS011;37512;52.408;13.356;2024-02-26T19:13:15;15.73;;;10.52;;
45762;SDS011;37512;52.408;13.356;2024-02-26T19:17:17;13.55;;;8.80;;
45762;SDS011;37512;52.408;13.356;2024-02-26T19:21:19;14.90;;;9.43;;
45762;SDS011;37512;52.408;13.356;2024-02-26T19:25:21;15.77;;;9.68;;
45762;SDS011;37512;52.408;13.356;2024-02-26T19:29:23;16.02;;;9.00;;
45762;SDS011;37512;52.408;13.356;2024-02-26T19:33:26;13.05;;;8.93;;
45762;SDS011;37512;52.408;13.356;2024-02-26T19:37:31;14.35;;;9.73;;
45762;SDS011;37512;52.408;13.356;2024-02-26T19:41:33;16.15;;;9.57;;
45762;SDS011;37512;52.408;13.356;2024-02-26T19:45:35;14.65;;;9.20;;
45762;SDS011;37512;52.408;13.356;2024-02-26T19:49:37;17.67;;;9.68;;
45762;SDS011;37512;52.408;13.356;2024-02-26T19:53:38;14.82;;;8.73;;
45762;SDS011;37512;52.408;13.356;2024-02-26T19:57:42;16.25;;;9.32;;
45762;SDS011;37512;52.408;13.356;2024-02-26T20:01:43;12.73;;;9.02;;
45762;SDS011;37512;52.408;13.356;2024-02-26T20:05:45;14.77;;;9.05;;
45762;SDS011;37512;52.408;13.356;2024-02-26T20:09:47;16.05;;;9.15;;
45762;SDS011;37512;52.408;13.356;2024-02-26T20:13:49;14.70;;;9.15;;
45762;SDS011;37512;52.408;13.356;2024-02-26T20:17:50;15.02;;;9.38;;
45762;SDS011;37512;52.408;13.356;2024-02-26T20:21:52;14.30;;;8.57;;
45762;SDS011;37512;52.408;13.356;2024-02-26T20:25:55;13.55;;;8.27;;
45762;SDS011;37512;52.408;13.356;2024-02-26T20:29:59;14.95;;;9.35;;
45762;SDS011;37512;52.408;13.356;2024-02-26T20:34:01;14.57;;;9.05;;
45762;SDS011;37512;52.408;13.356;2024-02-26T20:38:04;13.35;;;8.70;;
45762;SDS011;37512;52.408;13.356;2024-02-26T20:42:06;12.93;;;8.32;;
45762;SDS011;37512;52.408;13.356;2024-02-26T20:46:08;15.60;;;9.63;;
45762;SDS011;37512;52.408;13.356;2024-02-26T20:50:11;13.43;;;8.27;;
45762;SDS011;37512;52.408;13.356;2024-02-26T20:54:12;15.07;;;8.80;;
45762;SDS011;37512;52.408;13.356;2024-02-26T20:58:14;12.65;;;8.57;;
45762;SDS011;37512;52.408;13.356;2024-02-26T21:02:16;15.38;;;9.65;;
45762;SDS011;37512;52.408;13.356;2024-02-26T21:06:27;14.30;;;8.93;;
45762;SDS011;37512;52.408;13.356;2024-02-26T21:10:28;15.75;;;8.73;;
45762;SDS011;37512;52.408;13.356;2024-02-26T21:14:31;15.40;;;8.88;;
45762;SDS011;37512;52.408;13.356;2024-02-26T21:18:32;14.57;;;8.85;;
45762;SDS011;37512;52.408;13.356;2024-02-26T21:22:38;16.33;;;9.40;;
45762;SDS011;37512;52.408;13.356;2024-02-26T21:26:40;16.20;;;9.30;;
45762;SDS011;37512;52.408;13.356;2024-02-26T21:30:42;12.13;;;8.63;;
45762;SDS011;37512;52.408;13.356;2024-02-26T21:34:45;13.82;;;7.78;;
45762;SDS011;37512;52.408;13.356;2024-02-26T21:38:47;13.18;;;8.05;;
45762;SDS011;37512;52.408;13.356;2024-02-26T21:42:51;17.70;;;9.27;;
45762;SDS011;37512;52.408;13.356;2024-02-26T21:46:53;11.68;;;7.53;;
45762;SDS011;37512;52.408;13.356;2024-02-26T21:50:55;13.73;;;7.82;;
45762;SDS011;37512;52.408;13.356;2024-02-26T21:54:57;12.20;;;6.88;;
45762;SDS011;37512;52.408;13.356;2024-02-26T21:58:58;11.80;;;6.80;;
45762;SDS011;37512;52.408;13.356;2024-02-26T22:03:01;12.40;;;6.75;;
45762;SDS011;37512;52.408;13.356;2024-02-26T22:07:02;10.55;;;7.20;;
45762;SDS011;37512;52.408;13.356;2024-02-26T22:11:05;15.10;;;7.13;;
45762;SDS011;37512;52.408;13.356;2024-02-26T22:15:06;9.48;;;6.75;;
45762;SDS011;37512;52.408;13.356;2024-02-26T22:19:12;11.40;;;7.03;;
45762;SDS011;37512;52.408;13.356;2024-02-26T22:23:15;9.52;;;6.38;;
45762;SDS011;37512;52.408;13.356;2024-02-26T22:27:17;10.25;;;6.93;;
45762;SDS011;37512;52.408;13.356;2024-02-26T22:31:19;9.82;;;6.18;;
45762;SDS011;37512;52.408;13.356;2024-02-26T22:35:22;9.20;;;6.38;;
45762;SDS011;37512;52.408;13.356;2024-02-26T22:39:25;8.90;;;6.10;;
45762;SDS011;37512;52.408;13.356;2024-02-26T22:43:27;13.30;;;7.65;;
45762;SDS011;37512;52.408;13.356;2024-02-26T22:47:29;10.02;;;6.53;;
45762;SDS011;37512;52.408;13.356;2024-02-26T22:51:31;13.20;;;7.95;;
45762;SDS011;37512;52.408;13.356;2024-02-26T22:55:32;16.40;;;8.13;;
45762;SDS011;37512;52.408;13.356;2024-02-26T22:59:34;12.00;;;6.95;;
45762;SDS011;37512;52.408;13.356;2024-02-26T23:03:36;9.68;;;6.45;;
45762;SDS011;37512;52.408;13.356;2024-02-26T23:07:38;11.10;;;6.38;;
45762;SDS011;37512;52.408;13.356;2024-02-26T23:11:40;11.07;;;6.15;;
45762;SDS011;37512;52.408;13.356;2024-02-26T23:15:42;10.13;;;6.57;;
45762;SDS011;37512;52.408;13.356;2024-02-26T23:19:44;13.65;;;7.40;;
45762;SDS011;37512;52.408;13.356;2024-02-26T23:23:45;11.25;;;7.47;;
45762;SDS011;37512;52.408;13.356;2024-02-26T23:27:48;11.38;;;7.35;;
45762;SDS011;37512;52.408;13.356;2024-02-26T23:31:50;9.75;;;6.70;;